• Join FlightAware (Why Join?)
  • Login
  • US Flag 
05:51AM EDT


 

Airport Tracker/Info


-or-


 

Live Flight TrackerFlight Track Log ✈ N210PM ✈ 08-Jun-2013 ✈ KVTN - KLNK

Flight Track Log - Related Links

Times and Time Zones

All times are in EDT time to prevent confusion due to time zone crossing. See the N210PM flight status page for this flight to view local times or setup timezone preferences in your user account.

Time Position Orientation Groundspeed Altitude Reporting Facility
EDT Latitude Longitude Course Direction KTS MPH feet Rate Location/Type
08:50AM 42.6408 -100.3719 203° Southwest 217 250 5,000  Level Minneapolis Center
08:51AM 42.5844 -100.3378 156° South 218 251 15,200 6,000 Climbing Minneapolis Center
08:52AM 42.5231 -100.3164 166° South 223 257 17,200 1,920 Climbing Minneapolis Center
08:53AM 42.5841 -100.0052 154° Southeast  Level Estimated
08:54AM 42.5384 -99.9150 151° Southeast  Level Estimated
08:54AM 42.4594 -100.2731 153° Southeast 238 274 19,200  Level Denver Center
08:55AM 42.4927 -99.8250 152° Southeast  Level Estimated
08:55AM 42.4203 -100.1975 125° Southeast 251 289 20,700  Level Denver Center
08:56AM 42.4182 -99.8668 203° Southwest  Level FlightAware Approximate
08:56AM 42.3794 -100.1258 128° Southeast 251 289 22,200  Level Denver Center
08:57AM 42.3350 -100.0431 126° Southeast 266 306 23,400 1,260 Climbing Minneapolis Center
08:58AM 42.2656 -99.9831 147° Southeast 278 320 24,800 780 Climbing Denver Center
08:59AM 42.1944 -99.9386 155° Southeast 294 338 25,000 60 Climbing Denver Center
09:00AM 42.1139 -99.8850 154° Southeast 331 381 25,000  Level Denver Center
09:01AM 42.0172 -99.8236 155° Southeast 341 392 25,000  Level Denver Center
09:02AM 41.9325 -99.7675 154° Southeast 351 404 25,000  Level Denver Center
09:03AM 41.8514 -99.7164 155° Southeast 348 400 25,000  Level Denver Center
09:04AM 41.7628 -99.6575 154° Southeast 353 406 25,000  Level Denver Center
09:05AM 41.6578 -99.5908 155° Southeast 349 402 25,000  Level Denver Center
09:06AM 41.5694 -99.5344 154° Southeast 351 404 25,000  Level Denver Center
09:07AM 41.4986 -99.4897 155° Southeast 352 405 25,000  Level Denver Center
09:08AM 41.3919 -99.4222 155° Southeast 354 407 25,000  Level Denver Center
09:09AM 41.3033 -99.3672 155° Southeast 355 409 25,000  Level Minneapolis Center
09:10AM 41.2136 -99.3103 154° Southeast 356 410 25,000  Level Denver Center
09:11AM 41.1231 -99.2536 155° Southeast 359 413 25,000  Level Denver Center
09:12AM 41.0325 -99.1978 155° Southeast 362 417 25,000  Level Denver Center
09:13AM 40.9439 -99.1417 154° Southeast 358 412 25,000  Level Denver Center
09:14AM 40.8494 -99.0831 155° Southeast 355 409 25,000  Level Denver Center
09:15AM 40.7619 -99.0161 150° Southeast 361 415 25,000  Level Minneapolis Center
09:16AM 40.7347 -98.8792 105° East 368 423 25,000  Level Minneapolis Center
09:17AM 40.7439 -98.7475 85° East 365 420 25,000  Level Minneapolis Center
09:18AM 40.7508 -98.6158 86° East 363 418 25,000  Level Minneapolis Center
09:19AM 40.7586 -98.4867 85° East 359 413 25,000 -300 Level Minneapolis Center
09:20AM 40.7667 -98.3578 85° East 356 410 24,400 -1,380 Descending Minneapolis Center
09:21AM 40.7758 -98.2008 86° East 358 412 22,200 -2,040 Descending Minneapolis Center
09:22AM 40.7825 -98.0700 86° East 358 412 20,300 -1,920 Descending Minneapolis Center
09:23AM 40.7911 -97.9425 85° East 354 407 18,400 -1,860 Descending Minneapolis Center
09:24AM 40.7969 -97.8200 86° East 340 391 16,500 -1,740 Descending Minneapolis Center
09:25AM 40.8031 -97.7039 86° East 325 374 14,900 -1,680 Descending Minneapolis Center
09:26AM 40.7886 -97.5869 99° East 300 345 13,200 -1,680 Descending Minneapolis Center
09:27AM 40.7950 -97.4711 86° East 295 339 11,600 -1,560 Descending Minneapolis Center
09:28AM 40.8022 -97.3686 85° East 282 325 10,100 -1,440 Descending Minneapolis Center
09:29AM 40.8075 -97.2719 86° East 266 306 8,700 -1,500 Descending Minneapolis Center
09:30AM 40.8303 -97.1714 73° East 269 310 7,100 -1,500 Descending Minneapolis Center
09:31AM 40.8361 -97.0731 85° East 268 308 5,700 -1,440 Descending Minneapolis Center
09:32AM 40.8278 -96.9617 96° East 261 300 4,200 -1,260 Descending Minneapolis Center
09:33AM 40.8628 -96.8928 56° Northeast 259 298 3,200 -720 Descending Minneapolis Center
09:34AM 40.9117 -96.8286 45° Northeast 253 291 2,800 -300 Descending Minneapolis Center
09:35AM 40.9194 -96.7781 78° East 183 211 2,600 -360 Descending Minneapolis Center
09:36AM 40.9047 -96.7522 127° Southeast 124 143 2,100 -540 Descending Minneapolis Center
09:37AM 40.8653 -96.7458 173° South 88 101 1,500 -540 Descending Minneapolis Center
09:39AM 40.8500 -96.7500 57° Northeast  Level FlightAware Approximate
09:46AM 40.8509 -96.7591 57° Northeast  Level Estimated